Time;durP1;ratioP1;P1;durP2;ratioP2;P2;SDS_P1;SDS_P2;PMS_P1;PMS_P2;Temp;Humidity;BMP_temperature;BMP_pressure;BME280_temperature;BME280_humidity;BME280_pressure;Samples;Min_cycle;Max_cycle;Signal;HPM_P1;HPM_P2
2023/12/22 00:01:03;;;;;;;0.30;0.30;;;;;;;4.32;100.00;100192.31;5098669;28;20107;-49
2023/12/22 00:03:29;;;;;;;0.40;0.40;;;;;;;4.34;100.00;100189.81;5098509;28;20036;-50
2023/12/22 00:05:54;;;;;;;0.40;0.40;;;;;;;4.35;100.00;100191.56;5095282;28;20111;-50
2023/12/22 00:08:19;;;;;;;0.30;0.30;;;;;;;4.33;100.00;100194.06;5095527;28;20024;-50
2023/12/22 00:10:44;;;;;;;0.40;0.40;;;;;;;4.33;100.00;100183.00;5095696;28;20020;-50
2023/12/22 00:13:10;;;;;;;0.40;0.40;;;;;;;4.33;100.00;100172.78;5094460;28;20422;-49
2023/12/22 00:15:35;;;;;;;0.40;0.40;;;;;;;4.24;100.00;100184.31;5095501;28;20024;-51
2023/12/22 00:18:00;;;;;;;0.40;0.40;;;;;;;4.26;100.00;100182.72;5095676;28;20031;-50
2023/12/22 00:20:25;;;;;;;0.30;0.30;;;;;;;4.30;100.00;100201.59;5094295;28;20048;-48
2023/12/22 00:22:51;;;;;;;0.40;0.40;;;;;;;4.32;100.00;100197.41;5095481;28;20476;-50
2023/12/22 00:25:16;;;;;;;0.40;0.40;;;;;;;4.36;100.00;100216.28;5095532;28;20062;-51
2023/12/22 00:27:41;;;;;;;0.30;0.30;;;;;;;4.36;100.00;100219.69;5094628;28;20086;-49
2023/12/22 00:30:07;;;;;;;0.40;0.40;;;;;;;4.37;100.00;100195.94;5094980;28;20114;-47
2023/12/22 00:32:32;;;;;;;0.30;0.30;;;;;;;4.40;100.00;100213.06;5094477;28;20032;-51
2023/12/22 00:34:58;;;;;;;0.40;0.40;;;;;;;4.36;100.00;100212.03;5094298;28;20026;-50
2023/12/22 00:37:23;;;;;;;0.40;0.40;;;;;;;4.38;100.00;100212.13;5094939;28;20031;-50
2023/12/22 00:39:49;;;;;;;0.40;0.40;;;;;;;4.37;100.00;100210.38;5095258;28;20387;-50
2023/12/22 00:42:14;;;;;;;0.40;0.40;;;;;;;4.34;100.00;100206.03;5093999;28;20024;-50
2023/12/22 00:44:40;;;;;;;0.30;0.30;;;;;;;4.33;100.00;100218.72;5094939;28;20051;-48
2023/12/22 00:47:05;;;;;;;0.40;0.40;;;;;;;4.32;100.00;100234.81;5094753;28;20044;-49
2023/12/22 00:49:30;;;;;;;0.30;0.30;;;;;;;4.27;100.00;100220.19;5093976;28;20028;-50
2023/12/22 00:51:56;;;;;;;0.40;0.40;;;;;;;4.21;100.00;100219.91;5094765;28;20433;-47
2023/12/22 00:54:21;;;;;;;0.40;0.40;;;;;;;4.17;100.00;100210.38;5094513;28;20381;-50
2023/12/22 00:56:46;;;;;;;0.30;0.30;;;;;;;4.10;100.00;100204.09;5094019;28;20031;-48
2023/12/22 00:59:11;;;;;;;0.40;0.40;;;;;;;4.07;100.00;100203.09;5094362;28;20047;-50
2023/12/22 01:01:37;;;;;;;0.40;0.40;;;;;;;4.03;100.00;100203.75;5094893;28;20028;-48
2023/12/22 01:04:03;;;;;;;0.40;0.40;;;;;;;4.01;100.00;100218.13;5093778;28;20031;-50
2023/12/22 01:06:28;;;;;;;0.40;0.40;;;;;;;3.98;100.00;100210.31;5094241;28;20107;-49
2023/12/22 01:08:53;;;;;;;0.30;0.30;;;;;;;4.01;100.00;100205.38;5094558;28;20074;-50
2023/12/22 01:11:18;;;;;;;0.43;0.43;;;;;;;4.04;100.00;100205.50;5093280;28;20024;-51
2023/12/22 01:13:44;;;;;;;0.43;0.43;;;;;;;4.06;100.00;100211.56;5094342;28;20020;-49
2023/12/22 01:16:09;;;;;;;0.38;0.38;;;;;;;4.12;100.00;100219.50;5092908;28;20086;-48
2023/12/22 01:18:35;;;;;;;0.40;0.40;;;;;;;4.14;100.00;100229.75;5093782;28;20055;-51
2023/12/22 01:21:00;;;;;;;0.47;0.47;;;;;;;4.25;100.00;100210.72;5094360;28;20028;-49
2023/12/22 01:23:25;;;;;;;0.30;0.30;;;;;;;4.33;100.00;100203.41;5093158;28;20032;-50
2023/12/22 01:25:51;;;;;;;0.40;0.40;;;;;;;4.40;100.00;100220.72;5094094;28;20023;-49
2023/12/22 01:28:16;;;;;;;0.40;0.40;;;;;;;4.47;100.00;100230.41;5093822;28;20028;-50
2023/12/22 01:30:41;;;;;;;0.40;0.40;;;;;;;4.50;100.00;100232.22;5093534;28;20069;-50
2023/12/22 01:33:07;;;;;;;0.40;0.40;;;;;;;4.52;100.00;100235.69;5094044;28;20070;-50
2023/12/22 01:35:32;;;;;;;0.35;0.35;;;;;;;4.50;100.00;100243.28;5093657;28;20457;-51
2023/12/22 01:37:57;;;;;;;0.40;0.40;;;;;;;4.49;100.00;100236.41;5093150;28;20032;-51
2023/12/22 01:40:22;;;;;;;0.30;0.30;;;;;;;4.50;100.00;100253.50;5093548;28;20012;-51
2023/12/22 01:42:48;;;;;;;0.40;0.40;;;;;;;4.60;100.00;100234.38;5093729;28;20059;-51
2023/12/22 01:45:13;;;;;;;0.40;0.40;;;;;;;4.68;100.00;100237.25;5092411;28;20031;-49
2023/12/22 01:47:39;;;;;;;0.40;0.40;;;;;;;4.72;100.00;100239.13;5093804;28;20081;-50
2023/12/22 01:50:05;;;;;;;0.30;0.30;;;;;;;4.76;100.00;100241.00;5093527;28;20035;-50
2023/12/22 01:52:31;;;;;;;0.40;0.40;;;;;;;4.87;100.00;100236.38;5092656;28;20046;-49
2023/12/22 01:54:56;;;;;;;0.30;0.30;;;;;;;4.92;100.00;100232.34;5093589;28;20078;-51
2023/12/22 01:57:21;;;;;;;0.30;0.30;;;;;;;4.92;100.00;100233.19;5093418;28;20028;-52
2023/12/22 01:59:48;;;;;;;0.40;0.40;;;;;;;4.92;100.00;100258.72;5092577;28;20422;-49
2023/12/22 02:02:14;;;;;;;0.50;0.50;;;;;;;4.95;100.00;100253.75;5093040;28;20028;-51
2023/12/22 02:04:39;;;;;;;0.40;0.40;;;;;;;4.93;100.00;100242.59;5098360;28;20019;-51
2023/12/22 02:07:08;;;;;;;0.32;0.32;;;;;;;5.00;100.00;100246.28;5112965;28;20027;-51
2023/12/22 02:09:33;;;;;;;0.40;0.40;;;;;;;5.03;100.00;100245.53;5113260;28;20368;-49
2023/12/22 02:11:58;;;;;;;0.30;0.30;;;;;;;5.13;100.00;100232.34;5113602;28;20053;-50
2023/12/22 02:14:24;;;;;;;0.40;0.40;;;;;;;5.10;100.00;100247.56;5112461;28;20031;-49
2023/12/22 02:17:02;;;;;;;0.40;0.40;;;;;;;5.07;100.00;100242.31;5113353;28;20020;-49
2023/12/22 02:19:45;;;;;;;0.40;0.40;;;;;;;5.10;100.00;100238.19;5112650;28;20401;-51
2023/12/22 02:22:12;;;;;;;0.30;0.30;;;;;;;5.15;100.00;100234.97;5113275;28;20027;-51
2023/12/22 02:24:41;;;;;;;0.28;0.28;;;;;;;5.14;100.00;100239.22;5113519;28;20028;-47
2023/12/22 02:27:47;;;;;;;0.40;0.40;;;;;;;5.19;100.00;100231.72;5112817;28;20108;-48
2023/12/22 02:30:22;;;;;;;0.50;0.50;;;;;;;5.21;100.00;100250.53;5030542;28;20025;-50
2023/12/22 02:32:50;;;;;;;0.40;0.40;;;;;;;5.21;100.00;100243.75;5104518;28;20114;-49
2023/12/22 02:35:20;;;;;;;0.30;0.30;;;;;;;5.29;100.00;100246.63;5112298;28;20031;-51
2023/12/22 02:37:47;;;;;;;0.40;0.40;;;;;;;5.33;100.00;100250.19;5113236;28;20024;-50
2023/12/22 02:40:14;;;;;;;0.40;0.40;;;;;;;5.32;100.00;100248.44;5113231;28;20027;-50
2023/12/22 02:42:39;;;;;;;0.30;0.30;;;;;;;5.44;100.00;100254.06;5112500;28;20042;-51
2023/12/22 02:45:06;;;;;;;0.40;0.40;;;;;;;5.38;100.00;100253.78;5113161;28;20479;-50
2023/12/22 02:47:33;;;;;;;0.40;0.40;;;;;;;5.39;100.00;100245.31;5112349;28;20048;-48
2023/12/22 02:49:58;;;;;;;0.30;0.30;;;;;;;5.42;100.00;100250.53;5113318;28;20098;-50
2023/12/22 02:52:23;;;;;;;0.35;0.35;;;;;;;5.45;100.00;100255.81;5112985;28;20157;-51
2023/12/22 02:54:49;;;;;;;0.32;0.32;;;;;;;5.51;100.00;100255.16;5112359;28;20112;-50
2023/12/22 02:57:14;;;;;;;0.40;0.40;;;;;;;5.48;100.00;100239.72;5112745;28;20494;-50
2023/12/22 02:59:39;;;;;;;0.32;0.32;;;;;;;5.45;100.00;100230.25;5112994;28;20490;-50
2023/12/22 03:02:05;;;;;;;0.40;0.40;;;;;;;5.43;100.00;100236.97;5112140;28;20384;-52
2023/12/22 03:04:30;;;;;;;0.40;0.40;;;;;;;5.33;100.00;100238.25;5112815;28;20020;-50
2023/12/22 03:06:56;;;;;;;0.30;0.30;;;;;;;5.31;100.00;100232.22;5113266;28;20479;-47
2023/12/22 03:09:21;;;;;;;0.35;0.35;;;;;;;5.26;100.00;100229.47;5111851;28;20063;-49
2023/12/22 03:11:47;;;;;;;0.40;0.40;;;;;;;5.22;100.00;100212.28;5112968;28;20031;-51
2023/12/22 03:14:12;;;;;;;0.40;0.40;;;;;;;5.19;100.00;100212.16;5112491;28;20035;-49
2023/12/22 03:16:38;;;;;;;0.40;0.40;;;;;;;5.14;100.00;100202.56;5111879;28;20034;-49
2023/12/22 03:19:03;;;;;;;0.30;0.30;;;;;;;5.05;100.00;100193.72;5112743;28;20155;-47
2023/12/22 03:21:28;;;;;;;0.40;0.40;;;;;;;5.02;100.00;100205.47;5112742;28;20359;-46
2023/12/22 03:23:53;;;;;;;0.40;0.40;;;;;;;5.00;100.00;100200.31;5112168;28;20089;-50
2023/12/22 03:26:19;;;;;;;0.40;0.40;;;;;;;5.00;100.00;100214.78;5112717;28;20475;-48
2023/12/22 03:28:44;;;;;;;0.40;0.40;;;;;;;4.95;100.00;100217.97;5112692;28;20027;-48
2023/12/22 03:31:09;;;;;;;0.40;0.40;;;;;;;4.91;100.00;100230.56;5111618;28;20364;-48
2023/12/22 03:33:35;;;;;;;0.40;0.40;;;;;;;5.02;100.00;100213.16;5112451;28;20028;-48
2023/12/22 03:36:00;;;;;;;0.40;0.40;;;;;;;5.03;100.00;100217.44;5112978;28;20379;-47
2023/12/22 03:38:25;;;;;;;0.40;0.40;;;;;;;5.11;100.00;100226.28;5111856;28;20023;-49
2023/12/22 03:40:50;;;;;;;0.40;0.40;;;;;;;5.20;100.00;100231.81;5114593;28;20458;-52
2023/12/22 03:43:16;;;;;;;0.40;0.40;;;;;;;5.23;100.00;100234.47;5116227;28;20016;-49
2023/12/22 03:45:41;;;;;;;0.40;0.40;;;;;;;5.25;100.00;100239.66;5115490;28;20372;-49
2023/12/22 03:48:06;;;;;;;0.30;0.30;;;;;;;5.41;100.00;100233.47;5116308;28;20024;-49
2023/12/22 03:50:32;;;;;;;0.30;0.30;;;;;;;5.48;100.00;100235.47;5116275;28;20057;-51
2023/12/22 03:52:57;;;;;;;0.30;0.30;;;;;;;5.59;100.00;100230.78;5115593;28;20039;-47
2023/12/22 03:55:22;;;;;;;0.40;0.40;;;;;;;5.61;100.00;100237.69;5116186;28;20018;-46
2023/12/22 03:57:47;;;;;;;0.40;0.40;;;;;;;5.64;100.00;100233.53;5115677;28;20482;-50
2023/12/22 04:00:14;;;;;;;0.30;0.30;;;;;;;5.69;100.00;100235.44;5115948;28;20054;-50
2023/12/22 04:02:40;;;;;;;0.30;0.30;;;;;;;5.73;100.00;100234.78;5115945;28;20425;-50
2023/12/22 04:05:05;;;;;;;0.30;0.30;;;;;;;5.72;100.00;100238.13;5115362;28;20338;-50
2023/12/22 04:07:30;;;;;;;0.30;0.30;;;;;;;5.82;100.00;100247.03;5115869;28;20036;-49
2023/12/22 04:09:56;;;;;;;0.40;0.40;;;;;;;5.86;100.00;100258.25;5115999;28;20031;-47
2023/12/22 04:12:21;;;;;;;0.30;0.30;;;;;;;5.89;100.00;100253.28;5114911;28;20046;-49
2023/12/22 04:14:46;;;;;;;0.30;0.30;;;;;;;5.93;100.00;100255.13;5115705;28;20023;-49
2023/12/22 04:17:11;;;;;;;0.40;0.40;;;;;;;5.96;100.00;100256.94;5115502;28;20126;-51
2023/12/22 04:19:37;;;;;;;0.30;0.30;;;;;;;6.01;100.00;100258.88;5114952;28;20039;-51
2023/12/22 04:22:02;;;;;;;0.30;0.30;;;;;;;6.01;100.00;100265.69;5115738;28;20112;-50
2023/12/22 04:24:28;;;;;;;0.40;0.40;;;;;;;6.09;100.00;100266.84;5115409;28;20034;-50
2023/12/22 04:26:53;;;;;;;0.30;0.30;;;;;;;6.10;100.00;100269.47;5115016;28;20046;-48
2023/12/22 04:29:18;;;;;;;0.38;0.38;;;;;;;6.15;100.00;100282.44;5115340;28;20026;-48
2023/12/22 04:31:44;;;;;;;0.40;0.40;;;;;;;6.19;100.00;100280.88;5115201;28;20422;-49
2023/12/22 04:34:09;;;;;;;0.30;0.30;;;;;;;6.22;100.00;100284.44;5114415;28;20087;-48
2023/12/22 04:36:35;;;;;;;0.40;0.40;;;;;;;6.23;100.00;100285.28;5115381;28;20133;-51
2023/12/22 04:39:00;;;;;;;0.40;0.40;;;;;;;6.30;100.00;100286.38;5115301;28;20026;-49
2023/12/22 04:41:25;;;;;;;0.30;0.30;;;;;;;6.28;100.00;100288.03;5114219;28;20081;-50
2023/12/22 04:43:51;;;;;;;0.30;0.30;;;;;;;6.36;100.00;100281.50;5115222;28;20062;-51
2023/12/22 04:46:16;;;;;;;0.30;0.30;;;;;;;6.34;100.00;100272.88;5114733;28;20093;-50
2023/12/22 04:48:41;;;;;;;0.40;0.40;;;;;;;6.36;100.00;100277.25;5114414;28;20042;-50
2023/12/22 04:51:07;;;;;;;0.38;0.38;;;;;;;6.39;100.00;100281.59;5114551;27;20077;-49
2023/12/22 04:53:32;;;;;;;0.30;0.30;;;;;;;6.40;100.00;100285.91;5114638;28;20020;-50
2023/12/22 04:55:58;;;;;;;0.40;0.40;;;;;;;6.39;100.00;100281.59;5114021;28;20028;-52
2023/12/22 04:58:23;;;;;;;0.22;0.22;;;;;;;6.39;100.00;100286.72;5114529;28;20028;-52
2023/12/22 05:00:49;;;;;;;0.40;0.40;;;;;;;6.33;100.00;100283.97;5114633;28;20023;-51
2023/12/22 05:03:14;;;;;;;0.30;0.30;;;;;;;6.37;100.00;100294.34;5113848;28;20415;-50
2023/12/22 05:05:39;;;;;;;0.30;0.30;;;;;;;6.33;100.00;100296.75;5114782;28;20379;-51
2023/12/22 05:08:05;;;;;;;0.30;0.30;;;;;;;6.31;100.00;100291.56;5114319;28;20111;-48
2023/12/22 05:10:30;;;;;;;0.30;0.30;;;;;;;6.36;100.00;100297.72;5113901;28;20038;-50
2023/12/22 05:12:56;;;;;;;0.40;0.40;;;;;;;6.37;100.00;100301.19;5114594;28;20023;-50
2023/12/22 05:15:21;;;;;;;0.30;0.30;;;;;;;6.38;100.00;100290.13;5113483;28;20020;-49
2023/12/22 05:17:46;;;;;;;0.30;0.30;;;;;;;6.40;100.00;100301.28;5114331;28;20024;-50
2023/12/22 05:20:11;;;;;;;0.40;0.40;;;;;;;6.44;100.00;100298.00;5114141;28;20015;-51
2023/12/22 05:22:37;;;;;;;0.40;0.40;;;;;;;6.40;100.00;100293.59;5113770;28;20023;-51
2023/12/22 05:25:02;;;;;;;0.40;0.40;;;;;;;6.40;100.00;100304.72;5114366;28;20026;-50
2023/12/22 05:27:28;;;;;;;0.30;0.30;;;;;;;6.36;100.00;100314.78;5114007;28;20027;-50
2023/12/22 05:29:53;;;;;;;0.40;0.40;;;;;;;6.26;100.00;100286.28;5113367;28;20047;-48
2023/12/22 05:32:18;;;;;;;0.30;0.30;;;;;;;6.23;100.00;100301.50;5113660;28;20113;-48
2023/12/22 05:34:43;;;;;;;0.40;0.40;;;;;;;6.19;100.00;100283.44;5114219;28;20020;-51
2023/12/22 05:37:09;;;;;;;0.40;0.40;;;;;;;6.11;100.00;100295.94;5113286;28;20099;-52
2023/12/22 05:39:34;;;;;;;0.40;0.40;;;;;;;6.12;100.00;100282.34;5114260;28;20023;-51
2023/12/22 05:41:59;;;;;;;0.30;0.30;;;;;;;6.08;100.00;100283.91;5114258;28;20076;-47
2023/12/22 05:44:29;;;;;;;0.30;0.30;;;;;;;6.06;100.00;100282.09;5112783;28;20375;-50
2023/12/22 05:46:54;;;;;;;0.40;0.40;;;;;;;5.99;100.00;100277.53;5113531;28;20483;-49
2023/12/22 05:49:19;;;;;;;0.30;0.30;;;;;;;6.00;100.00;100285.25;5113634;28;20038;-50
2023/12/22 05:51:45;;;;;;;0.35;0.35;;;;;;;6.10;100.00;100294.19;5112881;28;20020;-51
2023/12/22 05:54:11;;;;;;;0.30;0.30;;;;;;;6.10;100.00;100289.94;5113365;28;20380;-48
2023/12/22 05:56:36;;;;;;;0.40;0.40;;;;;;;6.19;100.00;100286.00;5113631;28;20023;-51
2023/12/22 05:59:03;;;;;;;0.38;0.38;;;;;;;6.21;100.00;100277.56;5112893;28;20367;-47
2023/12/22 06:01:28;;;;;;;0.40;0.40;;;;;;;6.28;100.00;100283.78;5113266;28;20053;-48
2023/12/22 06:03:54;;;;;;;0.38;0.38;;;;;;;6.33;100.00;100278.84;5113066;28;20062;-49
2023/12/22 06:06:20;;;;;;;0.30;0.30;;;;;;;6.38;100.00;100282.44;5112424;28;20549;-48
2023/12/22 06:08:45;;;;;;;0.40;0.40;;;;;;;6.40;100.00;100294.50;5113512;28;20028;-48
2023/12/22 06:11:10;;;;;;;0.30;0.30;;;;;;;6.42;100.00;100281.75;5112929;28;20489;-49
2023/12/22 06:13:36;;;;;;;0.40;0.40;;;;;;;6.37;100.00;100280.69;5112262;28;20091;-50
2023/12/22 06:16:01;;;;;;;0.30;0.30;;;;;;;6.27;100.00;100274.34;5113305;28;20046;-49
2023/12/22 06:18:26;;;;;;;0.30;0.30;;;;;;;6.19;100.00;100268.94;5108185;28;20020;-50
2023/12/22 06:20:52;;;;;;;0.38;0.38;;;;;;;6.12;100.00;100266.97;5093100;28;20031;-51
2023/12/22 06:23:18;;;;;;;0.40;0.40;;;;;;;6.05;100.00;100278.63;5092337;28;20393;-48
2023/12/22 06:25:43;;;;;;;0.30;0.30;;;;;;;6.04;100.00;100270.91;5092162;28;20047;-50
2023/12/22 06:28:09;;;;;;;0.40;0.40;;;;;;;6.05;100.00;100270.97;5092545;28;20078;-51
2023/12/22 06:30:34;;;;;;;0.40;0.40;;;;;;;6.06;100.00;100271.84;5092182;28;20059;-51
2023/12/22 06:32:59;;;;;;;0.30;0.30;;;;;;;6.05;100.00;100288.00;5091851;28;20028;-50
2023/12/22 06:35:25;;;;;;;0.30;0.30;;;;;;;6.08;100.00;100276.22;5092008;28;20028;-49
2023/12/22 06:37:51;;;;;;;0.40;0.40;;;;;;;6.11;100.00;100295.94;5092982;28;20456;-50
2023/12/22 06:40:16;;;;;;;0.30;0.30;;;;;;;6.11;100.00;100285.69;5091621;28;20077;-50
2023/12/22 06:42:42;;;;;;;0.40;0.40;;;;;;;6.16;100.00;100294.41;5092660;28;20028;-50
2023/12/22 06:45:07;;;;;;;0.30;0.30;;;;;;;6.21;100.00;100294.59;5092413;28;20025;-50
2023/12/22 06:47:33;;;;;;;0.30;0.30;;;;;;;6.30;100.00;100294.06;5091123;28;20062;-51
2023/12/22 06:49:58;;;;;;;0.40;0.40;;;;;;;6.36;100.00;100295.16;5092574;28;20031;-48
2023/12/22 06:52:24;;;;;;;0.40;0.40;;;;;;;6.38;100.00;100300.38;5092114;28;20039;-52
2023/12/22 06:54:49;;;;;;;0.30;0.30;;;;;;;6.41;100.00;100295.34;5091747;28;20024;-48
2023/12/22 06:57:14;;;;;;;0.40;0.40;;;;;;;6.43;100.00;100288.63;5092083;28;20101;-51
2023/12/22 06:59:39;;;;;;;0.30;0.30;;;;;;;6.49;100.00;100301.63;5092303;28;20032;-49
2023/12/22 07:02:06;;;;;;;0.40;0.40;;;;;;;6.51;100.00;100287.19;5091522;28;20028;-51
2023/12/22 07:05:20;;;;;;;0.40;0.40;;;;;;;6.54;100.00;100283.88;5092121;28;20024;-51
2023/12/22 07:07:46;;;;;;;0.30;0.30;;;;;;;6.50;100.00;100280.31;5078464;28;20036;-49
2023/12/22 07:10:12;;;;;;;0.30;0.30;;;;;;;6.57;100.00;100274.63;5091972;28;20373;-50
2023/12/22 07:12:39;;;;;;;0.30;0.30;;;;;;;6.54;100.00;100281.31;5092504;28;20028;-51
2023/12/22 07:15:06;;;;;;;0.40;0.40;;;;;;;6.64;100.00;100277.41;5093736;28;20024;-50
2023/12/22 07:17:32;;;;;;;;;;;;;;;6.67;100.00;100257.88;5096618;28;20020;-51
2023/12/22 07:19:57;;;;;;;0.30;0.30;;;;;;;6.69;100.00;100287.00;5096267;28;19991;-50
2023/12/22 07:22:23;;;;;;;0.40;0.40;;;;;;;6.71;100.00;100289.59;5095121;28;20028;-47
2023/12/22 07:24:49;;;;;;;0.40;0.40;;;;;;;6.75;100.00;100287.22;5095949;28;20035;-50
2023/12/22 07:27:14;;;;;;;0.30;0.30;;;;;;;6.87;100.00;100286.78;5096039;28;20063;-49
2023/12/22 07:29:40;;;;;;;0.32;0.32;;;;;;;6.89;100.00;100277.47;5095482;28;20055;-50
2023/12/22 07:32:05;;;;;;;0.40;0.40;;;;;;;6.90;100.00;100271.50;5095981;28;20042;-47
2023/12/22 07:34:30;;;;;;;0.32;0.32;;;;;;;6.98;100.00;100283.72;5095627;28;20028;-52
2023/12/22 07:36:56;;;;;;;0.30;0.30;;;;;;;7.00;100.00;100276.97;5094552;28;20111;-50
2023/12/22 07:39:22;;;;;;;0.30;0.30;;;;;;;7.05;100.00;100275.41;5097493;28;20061;-50
2023/12/22 07:41:48;;;;;;;0.30;0.30;;;;;;;7.06;100.00;100272.94;5097975;28;20020;-51
2023/12/22 07:44:13;;;;;;;0.30;0.30;;;;;;;7.08;100.00;100280.66;5094577;28;20077;-50
2023/12/22 07:46:38;;;;;;;0.40;0.40;;;;;;;7.08;100.00;100284.09;5094738;28;20056;-50
2023/12/22 07:49:04;;;;;;;0.40;0.40;;;;;;;7.13;100.00;100286.81;5095539;28;20016;-50
2023/12/22 07:51:29;;;;;;;0.40;0.40;;;;;;;7.18;100.00;100269.91;5094630;28;20166;-50
2023/12/22 07:53:54;;;;;;;0.30;0.30;;;;;;;7.22;100.00;100276.88;5095930;28;20028;-49
2023/12/22 07:56:19;;;;;;;0.30;0.30;;;;;;;7.20;100.00;100275.94;5095030;28;20104;-50
2023/12/22 07:58:45;;;;;;;0.30;0.30;;;;;;;7.25;100.00;100276.97;5094736;28;20032;-51
2023/12/22 08:01:10;;;;;;;0.35;0.35;;;;;;;7.31;100.00;100271.19;5094528;28;20199;-48
2023/12/22 08:03:37;;;;;;;0.28;0.28;;;;;;;7.37;100.00;100273.09;5095736;28;20032;-51
2023/12/22 08:06:02;;;;;;;0.30;0.30;;;;;;;7.39;100.00;100276.59;5094869;28;20069;-48
2023/12/22 08:08:28;;;;;;;0.30;0.30;;;;;;;7.43;100.00;100281.00;5095100;28;20012;-50
2023/12/22 08:10:53;;;;;;;0.30;0.30;;;;;;;7.41;100.00;100277.50;5095581;28;20035;-47
2023/12/22 08:13:19;;;;;;;0.30;0.30;;;;;;;7.43;100.00;100278.44;5094499;28;20036;-51
2023/12/22 08:15:44;;;;;;;0.40;0.40;;;;;;;7.45;100.00;100271.66;5095427;28;20016;-52
2023/12/22 08:18:10;;;;;;;0.40;0.40;;;;;;;7.47;100.00;100270.00;5094497;28;20028;-48
2023/12/22 08:20:35;;;;;;;0.40;0.40;;;;;;;7.48;100.00;100261.50;5095467;28;20027;-51
2023/12/22 08:23:00;;;;;;;0.30;0.30;;;;;;;7.49;100.00;100268.38;5095084;28;20020;-50
2023/12/22 08:25:26;;;;;;;0.30;0.30;;;;;;;7.50;100.00;100272.69;5093476;28;20070;-50
2023/12/22 08:27:51;;;;;;;0.30;0.30;;;;;;;7.51;100.00;100282.09;5094830;28;20028;-51
2023/12/22 08:30:17;;;;;;;0.30;0.30;;;;;;;7.53;100.00;100267.66;5094371;28;20110;-50
2023/12/22 08:32:42;;;;;;;0.20;0.20;;;;;;;7.56;100.00;100270.31;5094357;28;20032;-51
2023/12/22 08:35:08;;;;;;;0.20;0.20;;;;;;;7.57;100.00;100264.34;5095061;28;20036;-50
2023/12/22 08:37:33;;;;;;;0.30;0.30;;;;;;;7.58;100.00;100265.25;5094622;28;20383;-50
2023/12/22 08:39:58;;;;;;;0.30;0.30;;;;;;;7.58;100.00;100263.53;5093575;28;20060;-50
2023/12/22 08:42:25;;;;;;;0.38;0.38;;;;;;;7.58;100.00;100263.53;5093874;28;20468;-51
2023/12/22 08:44:50;;;;;;;0.22;0.22;;;;;;;7.62;100.00;100263.63;5093288;28;20123;-51
2023/12/22 08:47:16;;;;;;;0.30;0.30;;;;;;;7.63;100.00;100265.38;5091664;28;20070;-49
2023/12/22 08:49:41;;;;;;;0.30;0.30;;;;;;;7.64;100.00;100262.84;5094556;28;20032;-51
2023/12/22 08:52:07;;;;;;;0.30;0.30;;;;;;;7.65;100.00;100253.50;5094965;28;20380;-50
2023/12/22 08:54:33;;;;;;;0.30;0.30;;;;;;;7.69;100.00;100260.44;5093882;28;20027;-50
2023/12/22 08:56:59;;;;;;;0.30;0.30;;;;;;;7.71;100.00;100253.69;5094931;28;20024;-51
2023/12/22 08:59:24;;;;;;;0.30;0.30;;;;;;;7.72;100.00;100253.72;5094469;28;20433;-52
2023/12/22 09:01:50;;;;;;;0.30;0.30;;;;;;;7.75;100.00;100245.25;5093848;28;20027;-50
2023/12/22 09:04:16;;;;;;;0.30;0.30;;;;;;;7.79;100.00;100246.22;5094465;28;20027;-49
2023/12/22 09:06:42;;;;;;;0.30;0.30;;;;;;;7.82;100.00;100252.31;5094443;28;20187;-49
2023/12/22 09:09:08;;;;;;;0.30;0.30;;;;;;;7.84;100.00;100249.81;5093648;28;20380;-51
2023/12/22 09:11:34;;;;;;;0.30;0.30;;;;;;;7.85;100.00;100254.09;5094430;28;20104;-50
2023/12/22 09:14:00;;;;;;;0.20;0.20;;;;;;;7.87;100.00;100253.31;5094498;28;20103;-51
2023/12/22 09:16:25;;;;;;;0.30;0.30;;;;;;;7.90;100.00;100268.81;5093328;28;20091;-50
2023/12/22 09:18:51;;;;;;;0.30;0.30;;;;;;;7.94;100.00;100266.34;5094124;28;20095;-51
2023/12/22 09:21:17;;;;;;;0.30;0.30;;;;;;;7.95;100.00;100242.44;5093682;28;20468;-47
2023/12/22 09:23:46;;;;;;;0.30;0.30;;;;;;;7.93;100.00;100262.91;5094153;28;20022;-50
2023/12/22 09:26:15;;;;;;;0.40;0.40;;;;;;;7.91;100.00;100272.25;5093614;28;20379;-47
2023/12/22 09:28:40;;;;;;;0.30;0.30;;;;;;;7.91;100.00;100259.41;5093142;28;20565;-50
2023/12/22 09:31:09;;;;;;;0.20;0.20;;;;;;;7.88;100.00;100246.50;5093830;28;20028;-50
2023/12/22 09:33:35;;;;;;;0.30;0.30;;;;;;;7.87;100.00;100235.34;5093833;28;20027;-50
2023/12/22 09:36:00;;;;;;;0.30;0.30;;;;;;;7.89;100.00;100223.47;5092892;28;20081;-47
2023/12/22 09:38:25;;;;;;;0.30;0.30;;;;;;;7.91;100.00;100237.22;5092747;28;20450;-50
2023/12/22 09:40:51;;;;;;;0.22;0.22;;;;;;;7.90;100.00;100225.22;5093794;28;20036;-51
2023/12/22 09:43:19;;;;;;;0.30;0.30;;;;;;;7.91;100.00;100226.06;5092647;28;20421;-51
2023/12/22 09:45:45;;;;;;;0.30;0.30;;;;;;;7.93;100.00;100223.53;5093660;28;20036;-51
2023/12/22 09:48:16;;;;;;;0.40;0.40;;;;;;;7.93;100.00;100238.94;5093290;28;20472;-49
2023/12/22 09:50:43;;;;;;;0.30;0.30;;;;;;;7.97;100.00;100239.09;5093104;28;20138;-47
2023/12/22 09:53:09;;;;;;;0.30;0.30;;;;;;;8.03;100.00;100235.81;5093407;28;20391;-50
2023/12/22 09:55:35;;;;;;;0.40;0.40;;;;;;;8.10;100.00;100242.03;5093341;28;20464;-51
2023/12/22 09:58:02;;;;;;;0.30;0.30;;;;;;;8.16;100.00;100222.56;5092787;28;20035;-50
2023/12/22 10:00:29;;;;;;;0.28;0.28;;;;;;;8.22;100.00;100233.00;5093065;28;20091;-50
2023/12/22 10:02:54;;;;;;;0.20;0.20;;;;;;;8.26;100.00;100230.50;5093255;28;20048;-50
2023/12/22 10:05:20;;;;;;;0.30;0.30;;;;;;;8.32;100.00;100238.41;5092301;28;20397;-50
2023/12/22 10:07:47;;;;;;;0.20;0.20;;;;;;;8.33;100.00;100229.88;5093378;28;20024;-50
2023/12/22 10:10:13;;;;;;;0.20;0.20;;;;;;;8.34;100.00;100247.88;5093083;28;20032;-52
2023/12/22 10:12:40;;;;;;;0.30;0.30;;;;;;;8.38;100.00;100236.88;5092463;28;20047;-51
2023/12/22 10:15:08;;;;;;;0.20;0.20;;;;;;;8.40;100.00;100242.03;5093343;28;20036;-50
2023/12/22 10:17:34;;;;;;;0.20;0.20;;;;;;;8.45;100.00;100240.47;5092250;28;20545;-49
2023/12/22 10:19:59;;;;;;;0.22;0.22;;;;;;;8.47;100.00;100253.38;5093339;28;20028;-48
2023/12/22 10:22:25;;;;;;;0.30;0.30;;;;;;;8.51;100.00;100256.09;5092806;28;20027;-50
2023/12/22 10:24:53;;;;;;;0.30;0.30;;;;;;;8.52;100.00;100247.56;5092064;28;20023;-47
2023/12/22 10:27:22;;;;;;;0.30;0.30;;;;;;;8.57;100.00;100251.16;5092670;28;20020;-46
2023/12/22 10:29:53;;;;;;;0.25;0.25;;;;;;;8.62;100.00;100246.13;5093043;28;20020;-49
2023/12/22 10:32:21;;;;;;;0.30;0.30;;;;;;;8.64;100.00;100243.63;5091723;28;20028;-47
2023/12/22 10:34:46;;;;;;;0.30;0.30;;;;;;;8.68;100.00;100250.56;5093183;28;20069;-48
2023/12/22 10:37:14;;;;;;;0.30;0.30;;;;;;;8.70;100.00;100246.31;5092534;28;20028;-48
2023/12/22 10:39:41;;;;;;;0.30;0.30;;;;;;;8.70;100.00;100246.31;5092227;28;20443;-47
2023/12/22 10:42:07;;;;;;;0.20;0.20;;;;;;;8.71;100.00;100237.78;5092880;28;20028;-45
2023/12/22 10:44:32;;;;;;;0.30;0.30;;;;;;;8.72;100.00;100244.69;5092493;28;20024;-52
2023/12/22 10:46:59;;;;;;;0.30;0.30;;;;;;;8.74;100.00;100243.03;5091901;28;20443;-50
2023/12/22 10:49:25;;;;;;;0.22;0.22;;;;;;;8.77;100.00;100237.97;5092249;28;20020;-50
2023/12/22 10:51:51;;;;;;;0.30;0.30;;;;;;;8.80;100.00;100243.19;5092708;28;20059;-50
2023/12/22 10:54:18;;;;;;;0.20;0.20;;;;;;;8.86;100.00;100253.63;5091812;28;20022;-51
2023/12/22 10:56:43;;;;;;;0.30;0.30;;;;;;;8.85;100.00;100251.88;5092673;28;20055;-49
2023/12/22 10:59:09;;;;;;;0.30;0.30;;;;;;;8.84;100.00;100247.56;5092643;28;20064;-47
2023/12/22 11:01:38;;;;;;;0.30;0.30;;;;;;;8.80;100.00;100243.19;5091858;28;20020;-50
2023/12/22 11:04:16;;;;;;;0.30;0.30;;;;;;;8.78;100.00;100237.16;5092726;28;20027;-51
2023/12/22 11:06:44;;;;;;;0.20;0.20;;;;;;;8.80;100.00;100261.16;5092703;28;20070;-48
2023/12/22 11:09:10;;;;;;;0.30;0.30;;;;;;;8.83;100.00;100247.53;5091081;28;20047;-45
2023/12/22 11:11:37;;;;;;;0.20;0.20;;;;;;;8.81;100.00;100238.94;5092424;28;20024;-51
2023/12/22 11:14:04;;;;;;;0.30;0.30;;;;;;;8.84;100.00;100237.28;5091923;28;20032;-51
2023/12/22 11:16:31;;;;;;;0.28;0.28;;;;;;;8.87;100.00;100227.09;5092461;28;20040;-49
2023/12/22 11:18:57;;;;;;;0.20;0.20;;;;;;;8.90;100.00;100234.03;5092132;28;20476;-48